sensor_id;sensor_type;location;lat;lon;timestamp;P1;durP1;ratioP1;P2;durP2;ratioP2
46753;SDS011;32500;50.620;3.400;2022-12-07T00:01:10;68.57;;;51.33;;
46753;SDS011;32500;50.620;3.400;2022-12-07T00:03:37;69.35;;;52.08;;
46753;SDS011;32500;50.620;3.400;2022-12-07T00:06:04;69.75;;;52.58;;
46753;SDS011;32500;50.620;3.400;2022-12-07T00:08:31;68.82;;;51.80;;
46753;SDS011;32500;50.620;3.400;2022-12-07T00:11:01;67.93;;;51.55;;
46753;SDS011;32500;50.620;3.400;2022-12-07T00:13:28;67.97;;;51.88;;
46753;SDS011;32500;50.620;3.400;2022-12-07T00:15:54;67.50;;;51.35;;
46753;SDS011;32500;50.620;3.400;2022-12-07T00:18:20;69.35;;;52.13;;
46753;SDS011;32500;50.620;3.400;2022-12-07T00:20:46;69.95;;;52.00;;
46753;SDS011;32500;50.620;3.400;2022-12-07T00:23:11;67.75;;;51.88;;
46753;SDS011;32500;50.620;3.400;2022-12-07T00:25:37;68.03;;;51.55;;
46753;SDS011;32500;50.620;3.400;2022-12-07T00:28:02;68.18;;;51.13;;
46753;SDS011;32500;50.620;3.400;2022-12-07T00:30:28;67.78;;;51.15;;
46753;SDS011;32500;50.620;3.400;2022-12-07T00:32:54;67.53;;;51.33;;
46753;SDS011;32500;50.620;3.400;2022-12-07T00:35:20;69.10;;;51.90;;
46753;SDS011;32500;50.620;3.400;2022-12-07T00:37:46;67.80;;;51.28;;
46753;SDS011;32500;50.620;3.400;2022-12-07T00:40:11;67.72;;;51.35;;
46753;SDS011;32500;50.620;3.400;2022-12-07T00:42:37;67.90;;;51.65;;
46753;SDS011;32500;50.620;3.400;2022-12-07T00:45:03;68.88;;;51.92;;
46753;SDS011;32500;50.620;3.400;2022-12-07T00:47:29;67.25;;;51.10;;
46753;SDS011;32500;50.620;3.400;2022-12-07T00:49:54;66.55;;;50.95;;
46753;SDS011;32500;50.620;3.400;2022-12-07T00:52:20;69.43;;;51.95;;
46753;SDS011;32500;50.620;3.400;2022-12-07T00:54:46;68.50;;;51.15;;
46753;SDS011;32500;50.620;3.400;2022-12-07T00:57:11;68.97;;;51.50;;
46753;SDS011;32500;50.620;3.400;2022-12-07T00:59:37;68.20;;;51.05;;
46753;SDS011;32500;50.620;3.400;2022-12-07T01:02:03;66.88;;;51.45;;
46753;SDS011;32500;50.620;3.400;2022-12-07T01:04:28;67.72;;;51.38;;
46753;SDS011;32500;50.620;3.400;2022-12-07T01:06:54;68.63;;;51.22;;
46753;SDS011;32500;50.620;3.400;2022-12-07T01:09:20;66.95;;;51.15;;
46753;SDS011;32500;50.620;3.400;2022-12-07T01:11:45;68.30;;;51.08;;
46753;SDS011;32500;50.620;3.400;2022-12-07T01:14:11;66.70;;;51.38;;
46753;SDS011;32500;50.620;3.400;2022-12-07T01:16:38;67.70;;;51.38;;
46753;SDS011;32500;50.620;3.400;2022-12-07T01:19:04;69.35;;;51.80;;
46753;SDS011;32500;50.620;3.400;2022-12-07T01:21:30;67.13;;;51.13;;
46753;SDS011;32500;50.620;3.400;2022-12-07T01:24:03;67.47;;;51.25;;
46753;SDS011;32500;50.620;3.400;2022-12-07T01:26:30;68.32;;;51.42;;
46753;SDS011;32500;50.620;3.400;2022-12-07T01:28:56;68.47;;;52.03;;
46753;SDS011;32500;50.620;3.400;2022-12-07T01:31:24;67.82;;;51.63;;
46753;SDS011;32500;50.620;3.400;2022-12-07T01:33:52;67.57;;;52.08;;
46753;SDS011;32500;50.620;3.400;2022-12-07T01:36:32;66.43;;;50.90;;
46753;SDS011;32500;50.620;3.400;2022-12-07T01:39:00;67.70;;;50.97;;
46753;SDS011;32500;50.620;3.400;2022-12-07T01:47:00;65.60;;;51.40;;
46753;SDS011;32500;50.620;3.400;2022-12-07T01:49:35;66.35;;;50.40;;
46753;SDS011;32500;50.620;3.400;2022-12-07T01:54:40;69.65;;;51.13;;
46753;SDS011;32500;50.620;3.400;2022-12-07T01:57:08;66.57;;;50.92;;
46753;SDS011;32500;50.620;3.400;2022-12-07T01:59:34;65.75;;;50.85;;
46753;SDS011;32500;50.620;3.400;2022-12-07T02:02:00;67.32;;;50.47;;
46753;SDS011;32500;50.620;3.400;2022-12-07T02:04:30;67.13;;;51.33;;
46753;SDS011;32500;50.620;3.400;2022-12-07T02:06:56;65.95;;;51.03;;
46753;SDS011;32500;50.620;3.400;2022-12-07T02:09:23;65.95;;;50.60;;
46753;SDS011;32500;50.620;3.400;2022-12-07T02:11:48;67.53;;;50.85;;
46753;SDS011;32500;50.620;3.400;2022-12-07T02:14:15;67.03;;;51.25;;
46753;SDS011;32500;50.620;3.400;2022-12-07T02:16:49;65.93;;;50.72;;
46753;SDS011;32500;50.620;3.400;2022-12-07T02:25:59;66.53;;;50.22;;
46753;SDS011;32500;50.620;3.400;2022-12-07T02:28:47;65.55;;;50.28;;
46753;SDS011;32500;50.620;3.400;2022-12-07T02:31:19;66.80;;;50.58;;
46753;SDS011;32500;50.620;3.400;2022-12-07T02:34:00;67.20;;;51.03;;
46753;SDS011;32500;50.620;3.400;2022-12-07T02:36:43;67.90;;;51.10;;
46753;SDS011;32500;50.620;3.400;2022-12-07T02:39:16;65.47;;;50.70;;
46753;SDS011;32500;50.620;3.400;2022-12-07T02:41:47;67.25;;;51.00;;
46753;SDS011;32500;50.620;3.400;2022-12-07T02:44:18;66.47;;;50.38;;
46753;SDS011;32500;50.620;3.400;2022-12-07T02:46:49;66.38;;;50.85;;
46753;SDS011;32500;50.620;3.400;2022-12-07T02:49:21;66.45;;;50.72;;
46753;SDS011;32500;50.620;3.400;2022-12-07T02:51:48;67.70;;;50.53;;
46753;SDS011;32500;50.620;3.400;2022-12-07T02:54:15;66.20;;;50.30;;
46753;SDS011;32500;50.620;3.400;2022-12-07T03:10:03;66.80;;;50.55;;
46753;SDS011;32500;50.620;3.400;2022-12-07T03:15:32;65.43;;;50.05;;
46753;SDS011;32500;50.620;3.400;2022-12-07T03:17:58;64.57;;;50.05;;
46753;SDS011;32500;50.620;3.400;2022-12-07T03:20:25;65.38;;;50.42;;
46753;SDS011;32500;50.620;3.400;2022-12-07T03:22:54;65.45;;;50.00;;
46753;SDS011;32500;50.620;3.400;2022-12-07T03:25:20;65.07;;;50.03;;
46753;SDS011;32500;50.620;3.400;2022-12-07T03:27:54;65.38;;;50.22;;
46753;SDS011;32500;50.620;3.400;2022-12-07T03:30:23;65.53;;;50.17;;
46753;SDS011;32500;50.620;3.400;2022-12-07T03:33:20;65.65;;;50.42;;
46753;SDS011;32500;50.620;3.400;2022-12-07T03:36:16;66.25;;;50.10;;
46753;SDS011;32500;50.620;3.400;2022-12-07T03:38:48;65.43;;;50.65;;
46753;SDS011;32500;50.620;3.400;2022-12-07T03:43:46;65.75;;;50.10;;
46753;SDS011;32500;50.620;3.400;2022-12-07T03:49:02;65.20;;;50.30;;
46753;SDS011;32500;50.620;3.400;2022-12-07T03:51:55;65.93;;;49.85;;
46753;SDS011;32500;50.620;3.400;2022-12-07T03:54:51;64.50;;;50.05;;
46753;SDS011;32500;50.620;3.400;2022-12-07T03:57:24;65.43;;;50.47;;
46753;SDS011;32500;50.620;3.400;2022-12-07T03:59:51;64.75;;;50.17;;
46753;SDS011;32500;50.620;3.400;2022-12-07T04:02:20;67.00;;;50.75;;
46753;SDS011;32500;50.620;3.400;2022-12-07T04:04:46;66.82;;;50.40;;
46753;SDS011;32500;50.620;3.400;2022-12-07T04:07:12;64.05;;;49.42;;
46753;SDS011;32500;50.620;3.400;2022-12-07T04:09:38;66.10;;;50.33;;
46753;SDS011;32500;50.620;3.400;2022-12-07T04:12:04;65.28;;;50.42;;
46753;SDS011;32500;50.620;3.400;2022-12-07T04:14:29;64.60;;;50.35;;
46753;SDS011;32500;50.620;3.400;2022-12-07T04:16:56;67.13;;;50.25;;
46753;SDS011;32500;50.620;3.400;2022-12-07T04:19:23;66.05;;;50.10;;
46753;SDS011;32500;50.620;3.400;2022-12-07T04:21:54;65.80;;;49.45;;
46753;SDS011;32500;50.620;3.400;2022-12-07T04:24:20;65.13;;;49.88;;
46753;SDS011;32500;50.620;3.400;2022-12-07T04:26:46;66.25;;;50.03;;
46753;SDS011;32500;50.620;3.400;2022-12-07T04:29:13;65.55;;;49.85;;
46753;SDS011;32500;50.620;3.400;2022-12-07T04:31:39;64.15;;;49.80;;
46753;SDS011;32500;50.620;3.400;2022-12-07T04:34:05;64.05;;;49.40;;
46753;SDS011;32500;50.620;3.400;2022-12-07T04:36:31;65.18;;;49.75;;
46753;SDS011;32500;50.620;3.400;2022-12-07T04:38:58;65.90;;;50.13;;
46753;SDS011;32500;50.620;3.400;2022-12-07T04:41:24;64.80;;;50.10;;
46753;SDS011;32500;50.620;3.400;2022-12-07T04:46:20;66.50;;;50.17;;
46753;SDS011;32500;50.620;3.400;2022-12-07T04:48:46;65.60;;;49.92;;
46753;SDS011;32500;50.620;3.400;2022-12-07T04:51:12;66.07;;;50.50;;
46753;SDS011;32500;50.620;3.400;2022-12-07T04:53:39;65.68;;;50.95;;
46753;SDS011;32500;50.620;3.400;2022-12-07T04:56:04;66.18;;;50.00;;
46753;SDS011;32500;50.620;3.400;2022-12-07T04:58:30;66.00;;;50.30;;
46753;SDS011;32500;50.620;3.400;2022-12-07T05:00:56;65.25;;;49.78;;
46753;SDS011;32500;50.620;3.400;2022-12-07T05:03:21;64.97;;;50.28;;
46753;SDS011;32500;50.620;3.400;2022-12-07T05:05:47;65.15;;;50.10;;
46753;SDS011;32500;50.620;3.400;2022-12-07T05:08:13;68.32;;;49.88;;
46753;SDS011;32500;50.620;3.400;2022-12-07T05:10:38;68.40;;;50.53;;
46753;SDS011;32500;50.620;3.400;2022-12-07T05:13:04;68.72;;;50.88;;
46753;SDS011;32500;50.620;3.400;2022-12-07T05:15:29;66.88;;;50.15;;
46753;SDS011;32500;50.620;3.400;2022-12-07T05:17:55;66.45;;;50.38;;
46753;SDS011;32500;50.620;3.400;2022-12-07T05:20:21;65.38;;;50.58;;
46753;SDS011;32500;50.620;3.400;2022-12-07T05:22:46;66.57;;;50.55;;
46753;SDS011;32500;50.620;3.400;2022-12-07T05:25:12;66.10;;;49.97;;
46753;SDS011;32500;50.620;3.400;2022-12-07T05:27:38;68.35;;;50.65;;
46753;SDS011;32500;50.620;3.400;2022-12-07T05:30:04;68.38;;;50.75;;
46753;SDS011;32500;50.620;3.400;2022-12-07T05:32:30;66.68;;;50.38;;
46753;SDS011;32500;50.620;3.400;2022-12-07T05:34:56;67.07;;;50.80;;
46753;SDS011;32500;50.620;3.400;2022-12-07T05:37:22;66.05;;;49.70;;
46753;SDS011;32500;50.620;3.400;2022-12-07T05:39:47;67.05;;;50.60;;
46753;SDS011;32500;50.620;3.400;2022-12-07T05:42:13;65.82;;;50.53;;
46753;SDS011;32500;50.620;3.400;2022-12-07T05:44:39;66.47;;;50.67;;
46753;SDS011;32500;50.620;3.400;2022-12-07T05:47:05;68.55;;;50.83;;
46753;SDS011;32500;50.620;3.400;2022-12-07T05:49:31;66.43;;;51.17;;
46753;SDS011;32500;50.620;3.400;2022-12-07T05:51:57;67.82;;;50.38;;
46753;SDS011;32500;50.620;3.400;2022-12-07T05:54:22;65.60;;;50.10;;
46753;SDS011;32500;50.620;3.400;2022-12-07T05:56:48;65.60;;;50.15;;
46753;SDS011;32500;50.620;3.400;2022-12-07T05:59:14;66.35;;;50.33;;
46753;SDS011;32500;50.620;3.400;2022-12-07T06:04:24;67.22;;;51.03;;
46753;SDS011;32500;50.620;3.400;2022-12-07T06:06:52;70.88;;;49.67;;
46753;SDS011;32500;50.620;3.400;2022-12-07T06:09:18;67.82;;;50.28;;
46753;SDS011;32500;50.620;3.400;2022-12-07T06:11:44;66.75;;;50.42;;
46753;SDS011;32500;50.620;3.400;2022-12-07T06:14:29;68.78;;;50.30;;
46753;SDS011;32500;50.620;3.400;2022-12-07T06:16:55;70.28;;;50.50;;
46753;SDS011;32500;50.620;3.400;2022-12-07T06:19:20;66.35;;;50.13;;
46753;SDS011;32500;50.620;3.400;2022-12-07T06:21:46;70.80;;;50.50;;
46753;SDS011;32500;50.620;3.400;2022-12-07T06:24:12;69.97;;;50.65;;
46753;SDS011;32500;50.620;3.400;2022-12-07T06:26:40;67.55;;;50.75;;
46753;SDS011;32500;50.620;3.400;2022-12-07T06:29:06;67.25;;;50.83;;
46753;SDS011;32500;50.620;3.400;2022-12-07T06:31:32;69.75;;;50.92;;
46753;SDS011;32500;50.620;3.400;2022-12-07T06:33:59;79.18;;;50.95;;
46753;SDS011;32500;50.620;3.400;2022-12-07T06:36:29;73.03;;;50.90;;
46753;SDS011;32500;50.620;3.400;2022-12-07T06:38:55;70.57;;;50.75;;
46753;SDS011;32500;50.620;3.400;2022-12-07T06:41:21;71.43;;;51.08;;
46753;SDS011;32500;50.620;3.400;2022-12-07T06:43:47;68.82;;;50.83;;
46753;SDS011;32500;50.620;3.400;2022-12-07T06:46:13;71.72;;;51.35;;
46753;SDS011;32500;50.620;3.400;2022-12-07T06:48:40;71.88;;;51.08;;
46753;SDS011;32500;50.620;3.400;2022-12-07T06:51:06;66.38;;;50.67;;
46753;SDS011;32500;50.620;3.400;2022-12-07T06:53:32;66.53;;;51.08;;
46753;SDS011;32500;50.620;3.400;2022-12-07T06:55:58;69.50;;;51.58;;
46753;SDS011;32500;50.620;3.400;2022-12-07T06:58:24;70.82;;;50.75;;
46753;SDS011;32500;50.620;3.400;2022-12-07T07:00:50;67.63;;;50.80;;
46753;SDS011;32500;50.620;3.400;2022-12-07T07:03:16;68.88;;;50.42;;
46753;SDS011;32500;50.620;3.400;2022-12-07T07:05:42;67.72;;;50.08;;
46753;SDS011;32500;50.620;3.400;2022-12-07T07:08:08;68.18;;;51.47;;
46753;SDS011;32500;50.620;3.400;2022-12-07T07:10:34;65.43;;;50.75;;
46753;SDS011;32500;50.620;3.400;2022-12-07T07:13:01;66.63;;;50.83;;
46753;SDS011;32500;50.620;3.400;2022-12-07T07:15:27;67.78;;;50.35;;
46753;SDS011;32500;50.620;3.400;2022-12-07T07:17:52;66.50;;;50.40;;
46753;SDS011;32500;50.620;3.400;2022-12-07T07:20:18;68.15;;;50.30;;
46753;SDS011;32500;50.620;3.400;2022-12-07T07:22:44;66.57;;;50.05;;
46753;SDS011;32500;50.620;3.400;2022-12-07T07:25:09;66.82;;;50.10;;
46753;SDS011;32500;50.620;3.400;2022-12-07T07:27:35;66.45;;;50.30;;
46753;SDS011;32500;50.620;3.400;2022-12-07T07:30:00;69.50;;;51.08;;
46753;SDS011;32500;50.620;3.400;2022-12-07T07:32:26;68.65;;;50.40;;
46753;SDS011;32500;50.620;3.400;2022-12-07T07:34:52;66.25;;;49.97;;
46753;SDS011;32500;50.620;3.400;2022-12-07T07:37:18;67.97;;;50.72;;
46753;SDS011;32500;50.620;3.400;2022-12-07T07:39:44;68.40;;;51.38;;
46753;SDS011;32500;50.620;3.400;2022-12-07T07:42:09;65.38;;;50.35;;
46753;SDS011;32500;50.620;3.400;2022-12-07T07:44:35;66.65;;;50.45;;
46753;SDS011;32500;50.620;3.400;2022-12-07T07:47:00;69.25;;;50.60;;
46753;SDS011;32500;50.620;3.400;2022-12-07T07:49:27;66.32;;;50.38;;
46753;SDS011;32500;50.620;3.400;2022-12-07T07:51:52;65.80;;;50.25;;
46753;SDS011;32500;50.620;3.400;2022-12-07T07:54:18;67.50;;;50.70;;
46753;SDS011;32500;50.620;3.400;2022-12-07T07:56:44;68.22;;;50.70;;
46753;SDS011;32500;50.620;3.400;2022-12-07T07:59:09;67.13;;;50.78;;
46753;SDS011;32500;50.620;3.400;2022-12-07T08:01:35;66.85;;;50.22;;
46753;SDS011;32500;50.620;3.400;2022-12-07T08:04:01;67.30;;;50.60;;
46753;SDS011;32500;50.620;3.400;2022-12-07T08:06:26;65.68;;;50.47;;
46753;SDS011;32500;50.620;3.400;2022-12-07T08:08:52;67.47;;;50.88;;
46753;SDS011;32500;50.620;3.400;2022-12-07T08:11:18;68.03;;;50.95;;
46753;SDS011;32500;50.620;3.400;2022-12-07T08:13:47;66.88;;;50.55;;
46753;SDS011;32500;50.620;3.400;2022-12-07T08:16:12;65.18;;;50.55;;
46753;SDS011;32500;50.620;3.400;2022-12-07T08:18:40;66.85;;;50.30;;
46753;SDS011;32500;50.620;3.400;2022-12-07T08:21:07;66.50;;;50.67;;
46753;SDS011;32500;50.620;3.400;2022-12-07T08:23:36;66.20;;;50.22;;
46753;SDS011;32500;50.620;3.400;2022-12-07T08:26:03;66.88;;;50.38;;
46753;SDS011;32500;50.620;3.400;2022-12-07T08:28:30;67.78;;;50.45;;
46753;SDS011;32500;50.620;3.400;2022-12-07T08:31:15;66.82;;;50.30;;
46753;SDS011;32500;50.620;3.400;2022-12-07T08:33:44;66.43;;;50.00;;
46753;SDS011;32500;50.620;3.400;2022-12-07T08:36:12;65.47;;;50.30;;
46753;SDS011;32500;50.620;3.400;2022-12-07T08:38:38;66.38;;;50.25;;
46753;SDS011;32500;50.620;3.400;2022-12-07T08:41:05;67.40;;;50.20;;
46753;SDS011;32500;50.620;3.400;2022-12-07T08:43:31;66.22;;;50.30;;
46753;SDS011;32500;50.620;3.400;2022-12-07T08:48:42;67.35;;;50.33;;
46753;SDS011;32500;50.620;3.400;2022-12-07T08:51:21;66.07;;;50.13;;
46753;SDS011;32500;50.620;3.400;2022-12-07T08:53:48;65.35;;;49.88;;
46753;SDS011;32500;50.620;3.400;2022-12-07T08:56:15;65.82;;;50.47;;
46753;SDS011;32500;50.620;3.400;2022-12-07T08:58:41;66.72;;;49.92;;
46753;SDS011;32500;50.620;3.400;2022-12-07T09:01:07;66.03;;;50.13;;
46753;SDS011;32500;50.620;3.400;2022-12-07T09:03:33;68.00;;;50.22;;
46753;SDS011;32500;50.620;3.400;2022-12-07T09:05:59;66.63;;;50.50;;
46753;SDS011;32500;50.620;3.400;2022-12-07T09:08:26;65.28;;;49.90;;
46753;SDS011;32500;50.620;3.400;2022-12-07T09:10:57;65.32;;;49.92;;
46753;SDS011;32500;50.620;3.400;2022-12-07T09:13:24;67.60;;;50.30;;
46753;SDS011;32500;50.620;3.400;2022-12-07T09:15:49;66.78;;;50.55;;
46753;SDS011;32500;50.620;3.400;2022-12-07T09:18:15;67.90;;;50.90;;
46753;SDS011;32500;50.620;3.400;2022-12-07T09:20:40;65.85;;;50.42;;
46753;SDS011;32500;50.620;3.400;2022-12-07T09:23:06;67.75;;;50.17;;
46753;SDS011;32500;50.620;3.400;2022-12-07T09:25:32;65.35;;;49.53;;
46753;SDS011;32500;50.620;3.400;2022-12-07T09:27:59;65.28;;;50.05;;
46753;SDS011;32500;50.620;3.400;2022-12-07T09:30:25;65.53;;;49.83;;
46753;SDS011;32500;50.620;3.400;2022-12-07T09:32:55;65.15;;;50.00;;
46753;SDS011;32500;50.620;3.400;2022-12-07T09:35:21;66.10;;;50.40;;
46753;SDS011;32500;50.620;3.400;2022-12-07T09:37:48;69.72;;;50.05;;
46753;SDS011;32500;50.620;3.400;2022-12-07T09:40:15;66.93;;;49.38;;
46753;SDS011;32500;50.620;3.400;2022-12-07T09:42:44;68.60;;;50.65;;
46753;SDS011;32500;50.620;3.400;2022-12-07T09:45:14;66.00;;;49.47;;
46753;SDS011;32500;50.620;3.400;2022-12-07T09:47:43;65.47;;;49.63;;
46753;SDS011;32500;50.620;3.400;2022-12-07T09:50:20;65.65;;;49.70;;
46753;SDS011;32500;50.620;3.400;2022-12-07T09:52:49;68.03;;;49.42;;
46753;SDS011;32500;50.620;3.400;2022-12-07T09:55:22;65.20;;;49.92;;
46753;SDS011;32500;50.620;3.400;2022-12-07T09:57:52;69.13;;;50.50;;
46753;SDS011;32500;50.620;3.400;2022-12-07T10:00:19;71.28;;;50.17;;
46753;SDS011;32500;50.620;3.400;2022-12-07T10:02:51;67.70;;;49.65;;
46753;SDS011;32500;50.620;3.400;2022-12-07T10:07:47;64.72;;;49.63;;
46753;SDS011;32500;50.620;3.400;2022-12-07T10:10:17;65.85;;;49.58;;
46753;SDS011;32500;50.620;3.400;2022-12-07T10:12:52;66.40;;;49.25;;
46753;SDS011;32500;50.620;3.400;2022-12-07T10:15:48;66.22;;;49.60;;
46753;SDS011;32500;50.620;3.400;2022-12-07T10:18:27;65.38;;;49.60;;
46753;SDS011;32500;50.620;3.400;2022-12-07T10:21:00;65.97;;;49.35;;
46753;SDS011;32500;50.620;3.400;2022-12-07T10:23:27;65.20;;;49.63;;
46753;SDS011;32500;50.620;3.400;2022-12-07T10:25:52;65.10;;;49.67;;
46753;SDS011;32500;50.620;3.400;2022-12-07T10:28:20;66.38;;;49.22;;
46753;SDS011;32500;50.620;3.400;2022-12-07T10:30:59;66.88;;;49.15;;
46753;SDS011;32500;50.620;3.400;2022-12-07T10:33:38;64.70;;;49.42;;
46753;SDS011;32500;50.620;3.400;2022-12-07T10:36:45;66.70;;;50.08;;
46753;SDS011;32500;50.620;3.400;2022-12-07T10:39:11;64.38;;;48.97;;
46753;SDS011;32500;50.620;3.400;2022-12-07T10:41:53;64.95;;;49.10;;
46753;SDS011;32500;50.620;3.400;2022-12-07T10:44:26;65.90;;;49.60;;
46753;SDS011;32500;50.620;3.400;2022-12-07T10:50:46;65.35;;;49.65;;
46753;SDS011;32500;50.620;3.400;2022-12-07T10:55:41;66.03;;;49.28;;
46753;SDS011;32500;50.620;3.400;2022-12-07T10:58:29;67.07;;;49.65;;
46753;SDS011;32500;50.620;3.400;2022-12-07T11:01:22;64.32;;;48.88;;
46753;SDS011;32500;50.620;3.400;2022-12-07T11:06:41;66.60;;;49.92;;
46753;SDS011;32500;50.620;3.400;2022-12-07T11:15:03;68.05;;;49.88;;
46753;SDS011;32500;50.620;3.400;2022-12-07T11:22:55;67.85;;;49.72;;
46753;SDS011;32500;50.620;3.400;2022-12-07T11:25:31;67.00;;;49.20;;
46753;SDS011;32500;50.620;3.400;2022-12-07T11:33:21;64.70;;;48.90;;
46753;SDS011;32500;50.620;3.400;2022-12-07T11:38:53;68.70;;;49.83;;
46753;SDS011;32500;50.620;3.400;2022-12-07T11:41:22;67.45;;;49.22;;
46753;SDS011;32500;50.620;3.400;2022-12-07T11:47:20;67.45;;;49.35;;
46753;SDS011;32500;50.620;3.400;2022-12-07T12:04:01;64.55;;;49.13;;
46753;SDS011;32500;50.620;3.400;2022-12-07T12:06:33;67.10;;;49.10;;
46753;SDS011;32500;50.620;3.400;2022-12-07T12:09:16;66.00;;;49.17;;
46753;SDS011;32500;50.620;3.400;2022-12-07T12:22:41;65.60;;;49.17;;
46753;SDS011;32500;50.620;3.400;2022-12-07T12:25:20;67.03;;;49.25;;
46753;SDS011;32500;50.620;3.400;2022-12-07T12:27:49;66.75;;;49.80;;
46753;SDS011;32500;50.620;3.400;2022-12-07T12:33:35;68.60;;;49.35;;
46753;SDS011;32500;50.620;3.400;2022-12-07T12:38:50;67.55;;;49.35;;
46753;SDS011;32500;50.620;3.400;2022-12-07T12:44:00;66.40;;;49.53;;
46753;SDS011;32500;50.620;3.400;2022-12-07T12:57:34;68.20;;;49.75;;
46753;SDS011;32500;50.620;3.400;2022-12-07T13:00:02;67.05;;;49.42;;
46753;SDS011;32500;50.620;3.400;2022-12-07T13:02:35;67.40;;;49.85;;
46753;SDS011;32500;50.620;3.400;2022-12-07T13:15:45;66.82;;;49.92;;
46753;SDS011;32500;50.620;3.400;2022-12-07T13:20:55;68.57;;;49.10;;
46753;SDS011;32500;50.620;3.400;2022-12-07T13:23:29;69.28;;;49.55;;
46753;SDS011;32500;50.620;3.400;2022-12-07T13:26:39;68.15;;;49.38;;
46753;SDS011;32500;50.620;3.400;2022-12-07T13:31:35;66.45;;;49.95;;
46753;SDS011;32500;50.620;3.400;2022-12-07T13:34:05;69.80;;;49.63;;
46753;SDS011;32500;50.620;3.400;2022-12-07T13:37:14;67.78;;;49.72;;
46753;SDS011;32500;50.620;3.400;2022-12-07T13:39:59;65.22;;;49.22;;
46753;SDS011;32500;50.620;3.400;2022-12-07T13:42:40;67.75;;;49.35;;
46753;SDS011;32500;50.620;3.400;2022-12-07T13:50:52;69.93;;;49.22;;
46753;SDS011;32500;50.620;3.400;2022-12-07T13:53:22;66.70;;;49.58;;
46753;SDS011;32500;50.620;3.400;2022-12-07T13:55:48;65.38;;;49.78;;
46753;SDS011;32500;50.620;3.400;2022-12-07T13:58:14;68.63;;;49.47;;
46753;SDS011;32500;50.620;3.400;2022-12-07T14:00:40;67.78;;;49.67;;
46753;SDS011;32500;50.620;3.400;2022-12-07T14:05:40;67.63;;;49.80;;
46753;SDS011;32500;50.620;3.400;2022-12-07T14:10:52;64.97;;;49.28;;
46753;SDS011;32500;50.620;3.400;2022-12-07T14:16:34;66.03;;;49.67;;
46753;SDS011;32500;50.620;3.400;2022-12-07T14:19:02;70.05;;;49.88;;
46753;SDS011;32500;50.620;3.400;2022-12-07T14:21:30;68.25;;;49.55;;
46753;SDS011;32500;50.620;3.400;2022-12-07T14:24:17;67.05;;;50.20;;
46753;SDS011;32500;50.620;3.400;2022-12-07T14:26:45;67.20;;;49.80;;
46753;SDS011;32500;50.620;3.400;2022-12-07T14:32:20;66.25;;;49.70;;
46753;SDS011;32500;50.620;3.400;2022-12-07T14:34:54;67.97;;;50.00;;
46753;SDS011;32500;50.620;3.400;2022-12-07T14:37:20;68.47;;;49.83;;
46753;SDS011;32500;50.620;3.400;2022-12-07T14:39:46;67.13;;;49.60;;
46753;SDS011;32500;50.620;3.400;2022-12-07T14:42:11;68.40;;;50.70;;
46753;SDS011;32500;50.620;3.400;2022-12-07T14:44:37;67.70;;;50.10;;
46753;SDS011;32500;50.620;3.400;2022-12-07T14:47:03;67.60;;;49.80;;
46753;SDS011;32500;50.620;3.400;2022-12-07T14:49:29;68.10;;;50.00;;
46753;SDS011;32500;50.620;3.400;2022-12-07T14:51:54;67.20;;;49.90;;
46753;SDS011;32500;50.620;3.400;2022-12-07T14:54:20;65.90;;;49.95;;
46753;SDS011;32500;50.620;3.400;2022-12-07T14:56:51;68.50;;;50.77;;
46753;SDS011;32500;50.620;3.400;2022-12-07T14:59:17;66.80;;;49.85;;
46753;SDS011;32500;50.620;3.400;2022-12-07T15:01:43;66.88;;;50.15;;
46753;SDS011;32500;50.620;3.400;2022-12-07T15:04:09;67.97;;;50.20;;
46753;SDS011;32500;50.620;3.400;2022-12-07T15:06:35;71.75;;;51.35;;
46753;SDS011;32500;50.620;3.400;2022-12-07T15:09:01;70.40;;;51.58;;
46753;SDS011;32500;50.620;3.400;2022-12-07T15:11:27;70.97;;;52.13;;
46753;SDS011;32500;50.620;3.400;2022-12-07T15:13:53;70.95;;;52.10;;
46753;SDS011;32500;50.620;3.400;2022-12-07T15:16:35;68.30;;;50.75;;
46753;SDS011;32500;50.620;3.400;2022-12-07T15:19:03;69.45;;;51.00;;
46753;SDS011;32500;50.620;3.400;2022-12-07T15:21:29;67.55;;;50.58;;
46753;SDS011;32500;50.620;3.400;2022-12-07T15:23:54;67.28;;;50.40;;
46753;SDS011;32500;50.620;3.400;2022-12-07T15:26:20;68.97;;;50.38;;
46753;SDS011;32500;50.620;3.400;2022-12-07T15:28:46;68.65;;;50.55;;
46753;SDS011;32500;50.620;3.400;2022-12-07T15:31:12;68.95;;;50.92;;
46753;SDS011;32500;50.620;3.400;2022-12-07T15:33:38;70.63;;;50.75;;
46753;SDS011;32500;50.620;3.400;2022-12-07T15:36:04;69.88;;;51.40;;
46753;SDS011;32500;50.620;3.400;2022-12-07T15:38:30;69.57;;;51.13;;
46753;SDS011;32500;50.620;3.400;2022-12-07T15:40:56;69.82;;;51.45;;
46753;SDS011;32500;50.620;3.400;2022-12-07T15:43:22;69.80;;;51.47;;
46753;SDS011;32500;50.620;3.400;2022-12-07T15:46:07;68.72;;;50.88;;
46753;SDS011;32500;50.620;3.400;2022-12-07T15:48:32;68.65;;;50.53;;
46753;SDS011;32500;50.620;3.400;2022-12-07T15:51:05;67.68;;;50.38;;
46753;SDS011;32500;50.620;3.400;2022-12-07T15:53:32;68.05;;;50.75;;
46753;SDS011;32500;50.620;3.400;2022-12-07T15:55:58;72.18;;;50.40;;
46753;SDS011;32500;50.620;3.400;2022-12-07T15:58:24;68.88;;;50.50;;
46753;SDS011;32500;50.620;3.400;2022-12-07T16:00:50;72.28;;;51.45;;
46753;SDS011;32500;50.620;3.400;2022-12-07T16:03:16;70.15;;;50.55;;
46753;SDS011;32500;50.620;3.400;2022-12-07T16:05:42;68.57;;;49.90;;
46753;SDS011;32500;50.620;3.400;2022-12-07T16:08:14;70.90;;;52.17;;
46753;SDS011;32500;50.620;3.400;2022-12-07T16:10:39;73.45;;;51.78;;
46753;SDS011;32500;50.620;3.400;2022-12-07T16:13:08;69.55;;;51.97;;
46753;SDS011;32500;50.620;3.400;2022-12-07T16:15:39;72.97;;;52.17;;
46753;SDS011;32500;50.620;3.400;2022-12-07T16:18:05;70.43;;;51.67;;
46753;SDS011;32500;50.620;3.400;2022-12-07T16:20:32;71.70;;;52.58;;
46753;SDS011;32500;50.620;3.400;2022-12-07T16:22:59;72.60;;;52.25;;
46753;SDS011;32500;50.620;3.400;2022-12-07T16:25:24;71.45;;;51.55;;
46753;SDS011;32500;50.620;3.400;2022-12-07T16:27:51;70.07;;;51.03;;
46753;SDS011;32500;50.620;3.400;2022-12-07T16:30:17;73.80;;;51.90;;
46753;SDS011;32500;50.620;3.400;2022-12-07T16:32:43;71.47;;;51.13;;
46753;SDS011;32500;50.620;3.400;2022-12-07T16:35:10;67.95;;;50.47;;
46753;SDS011;32500;50.620;3.400;2022-12-07T16:37:36;72.40;;;51.38;;
46753;SDS011;32500;50.620;3.400;2022-12-07T16:40:02;68.07;;;50.72;;
46753;SDS011;32500;50.620;3.400;2022-12-07T16:42:32;69.13;;;50.88;;
46753;SDS011;32500;50.620;3.400;2022-12-07T16:44:58;73.80;;;51.35;;
46753;SDS011;32500;50.620;3.400;2022-12-07T16:47:24;69.60;;;50.03;;
46753;SDS011;32500;50.620;3.400;2022-12-07T16:49:50;68.38;;;50.60;;
46753;SDS011;32500;50.620;3.400;2022-12-07T16:52:17;67.93;;;51.20;;
46753;SDS011;32500;50.620;3.400;2022-12-07T16:54:46;68.43;;;50.95;;
46753;SDS011;32500;50.620;3.400;2022-12-07T16:57:13;67.80;;;50.47;;
46753;SDS011;32500;50.620;3.400;2022-12-07T16:59:38;68.53;;;50.78;;
46753;SDS011;32500;50.620;3.400;2022-12-07T17:02:04;69.03;;;50.28;;
46753;SDS011;32500;50.620;3.400;2022-12-07T17:04:31;68.55;;;50.60;;
46753;SDS011;32500;50.620;3.400;2022-12-07T17:06:58;68.53;;;50.45;;